sensor_id;sensor_type;location;lat;lon;timestamp;temperature;humidity
34434;DHT22;34290;48.562;13.384;2023-02-15T00:00:04;-0.90;99.90
34434;DHT22;34290;48.562;13.384;2023-02-15T00:07:29;-0.90;99.90
34434;DHT22;34290;48.562;13.384;2023-02-15T00:12:23;-0.90;99.90
34434;DHT22;34290;48.562;13.384;2023-02-15T00:17:17;-1.00;99.90
34434;DHT22;34290;48.562;13.384;2023-02-15T00:22:13;-1.10;99.90
34434;DHT22;34290;48.562;13.384;2023-02-15T00:24:43;-1.30;99.90
34434;DHT22;34290;48.562;13.384;2023-02-15T00:29:37;-1.50;99.90
34434;DHT22;34290;48.562;13.384;2023-02-15T00:39:28;-1.50;99.90
34434;DHT22;34290;48.562;13.384;2023-02-15T00:44:22;-1.60;99.90
34434;DHT22;34290;48.562;13.384;2023-02-15T00:49:19;-1.80;99.90
34434;DHT22;34290;48.562;13.384;2023-02-15T00:51:46;-1.80;99.90
34434;DHT22;34290;48.562;13.384;2023-02-15T00:56:42;-1.70;99.90
34434;DHT22;34290;48.562;13.384;2023-02-15T00:59:09;-1.60;99.90
34434;DHT22;34290;48.562;13.384;2023-02-15T01:01:36;-1.70;99.90
34434;DHT22;34290;48.562;13.384;2023-02-15T01:04:03;-1.80;99.90
34434;DHT22;34290;48.562;13.384;2023-02-15T01:06:30;-1.70;99.90
34434;DHT22;34290;48.562;13.384;2023-02-15T01:08:57;-1.60;99.90
34434;DHT22;34290;48.562;13.384;2023-02-15T01:13:54;-1.70;99.90
34434;DHT22;34290;48.562;13.384;2023-02-15T01:18:49;-1.70;99.90
34434;DHT22;34290;48.562;13.384;2023-02-15T01:21:18;-1.70;99.90
34434;DHT22;34290;48.562;13.384;2023-02-15T01:28:41;-1.70;99.90
34434;DHT22;34290;48.562;13.384;2023-02-15T01:38:34;-1.50;99.90
34434;DHT22;34290;48.562;13.384;2023-02-15T01:41:02;-1.40;99.90
34434;DHT22;34290;48.562;13.384;2023-02-15T01:43:44;-1.50;99.90
34434;DHT22;34290;48.562;13.384;2023-02-15T01:46:14;-1.50;99.90
34434;DHT22;34290;48.562;13.384;2023-02-15T01:53:43;-1.40;99.90
34434;DHT22;34290;48.562;13.384;2023-02-15T01:58:40;-1.50;99.90
34434;DHT22;34290;48.562;13.384;2023-02-15T02:03:43;-1.60;99.90
34434;DHT22;34290;48.562;13.384;2023-02-15T02:06:12;-1.60;99.90
34434;DHT22;34290;48.562;13.384;2023-02-15T02:08:40;-1.60;99.90
34434;DHT22;34290;48.562;13.384;2023-02-15T02:11:10;-1.70;99.90
34434;DHT22;34290;48.562;13.384;2023-02-15T02:13:38;-1.60;99.90
34434;DHT22;34290;48.562;13.384;2023-02-15T02:16:11;-1.50;99.90
34434;DHT22;34290;48.562;13.384;2023-02-15T02:38:08;-1.50;99.90
34434;DHT22;34290;48.562;13.384;2023-02-15T02:40:43;-1.50;99.90
34434;DHT22;34290;48.562;13.384;2023-02-15T02:43:18;-1.50;99.90
34434;DHT22;34290;48.562;13.384;2023-02-15T02:48:22;-1.50;99.90
34434;DHT22;34290;48.562;13.384;2023-02-15T02:53:18;-1.60;99.90
34434;DHT22;34290;48.562;13.384;2023-02-15T02:55:46;-1.70;99.90
34434;DHT22;34290;48.562;13.384;2023-02-15T03:05:50;-1.80;99.90
34434;DHT22;34290;48.562;13.384;2023-02-15T03:13:16;-1.90;99.90
34434;DHT22;34290;48.562;13.384;2023-02-15T03:18:32;-1.90;99.90
34434;DHT22;34290;48.562;13.384;2023-02-15T03:21:03;-1.90;99.90
34434;DHT22;34290;48.562;13.384;2023-02-15T03:23:30;-1.90;99.90
34434;DHT22;34290;48.562;13.384;2023-02-15T03:28:31;-1.90;99.90
34434;DHT22;34290;48.562;13.384;2023-02-15T03:31:01;-1.90;99.90
34434;DHT22;34290;48.562;13.384;2023-02-15T03:33:29;-1.80;99.90
34434;DHT22;34290;48.562;13.384;2023-02-15T03:36:04;-1.90;99.90
34434;DHT22;34290;48.562;13.384;2023-02-15T03:41:03;-1.90;99.90
34434;DHT22;34290;48.562;13.384;2023-02-15T03:43:44;-1.90;99.90
34434;DHT22;34290;48.562;13.384;2023-02-15T03:46:17;-1.90;99.90
34434;DHT22;34290;48.562;13.384;2023-02-15T03:51:21;-2.00;99.90
34434;DHT22;34290;48.562;13.384;2023-02-15T03:54:03;-2.00;99.90
34434;DHT22;34290;48.562;13.384;2023-02-15T03:58:57;-1.90;99.90
34434;DHT22;34290;48.562;13.384;2023-02-15T04:01:48;-1.90;99.90
34434;DHT22;34290;48.562;13.384;2023-02-15T04:12:18;-2.00;99.90
34434;DHT22;34290;48.562;13.384;2023-02-15T04:14:48;-1.90;99.90
34434;DHT22;34290;48.562;13.384;2023-02-15T04:17:33;-2.00;99.90
34434;DHT22;34290;48.562;13.384;2023-02-15T04:32:53;-2.00;99.90
34434;DHT22;34290;48.562;13.384;2023-02-15T04:40:17;-1.90;99.90
34434;DHT22;34290;48.562;13.384;2023-02-15T04:42:47;-2.00;99.90
34434;DHT22;34290;48.562;13.384;2023-02-15T04:47:41;-2.20;99.90
34434;DHT22;34290;48.562;13.384;2023-02-15T04:52:36;-2.10;99.90
34434;DHT22;34290;48.562;13.384;2023-02-15T04:57:32;-2.10;99.90
34434;DHT22;34290;48.562;13.384;2023-02-15T05:07:20;-2.10;99.90
34434;DHT22;34290;48.562;13.384;2023-02-15T05:12:16;-2.10;99.90
34434;DHT22;34290;48.562;13.384;2023-02-15T05:14:43;-2.20;99.90
34434;DHT22;34290;48.562;13.384;2023-02-15T05:19:39;-2.40;99.90
34434;DHT22;34290;48.562;13.384;2023-02-15T05:24:33;-2.40;99.90
34434;DHT22;34290;48.562;13.384;2023-02-15T05:27:18;-2.40;99.90
34434;DHT22;34290;48.562;13.384;2023-02-15T05:30:03;-2.50;99.90
34434;DHT22;34290;48.562;13.384;2023-02-15T05:32:30;-2.40;99.90
34434;DHT22;34290;48.562;13.384;2023-02-15T05:37:24;-2.50;99.90
34434;DHT22;34290;48.562;13.384;2023-02-15T05:39:51;-2.40;99.90
34434;DHT22;34290;48.562;13.384;2023-02-15T05:44:47;-2.40;99.90
34434;DHT22;34290;48.562;13.384;2023-02-15T05:59:33;-2.30;99.90
34434;DHT22;34290;48.562;13.384;2023-02-15T06:02:00;-2.30;99.90
34434;DHT22;34290;48.562;13.384;2023-02-15T06:06:54;-2.40;99.90
34434;DHT22;34290;48.562;13.384;2023-02-15T06:09:21;-2.30;99.90
34434;DHT22;34290;48.562;13.384;2023-02-15T06:11:48;-2.30;99.90
34434;DHT22;34290;48.562;13.384;2023-02-15T06:16:44;-2.30;99.90
34434;DHT22;34290;48.562;13.384;2023-02-15T06:19:11;-2.20;99.90
34434;DHT22;34290;48.562;13.384;2023-02-15T06:26:32;-2.20;99.90
34434;DHT22;34290;48.562;13.384;2023-02-15T06:31:27;-2.30;99.90
34434;DHT22;34290;48.562;13.384;2023-02-15T06:36:26;-2.30;99.90
34434;DHT22;34290;48.562;13.384;2023-02-15T06:38:53;-2.20;99.90
34434;DHT22;34290;48.562;13.384;2023-02-15T06:43:47;-2.00;99.90
34434;DHT22;34290;48.562;13.384;2023-02-15T06:46:15;-1.90;99.90
34434;DHT22;34290;48.562;13.384;2023-02-15T06:56:07;-1.90;99.90
34434;DHT22;34290;48.562;13.384;2023-02-15T07:01:02;-1.90;99.90
34434;DHT22;34290;48.562;13.384;2023-02-15T07:03:29;-1.90;99.90
34434;DHT22;34290;48.562;13.384;2023-02-15T07:05:57;-1.80;99.90
34434;DHT22;34290;48.562;13.384;2023-02-15T07:08:26;-1.80;99.90
34434;DHT22;34290;48.562;13.384;2023-02-15T07:10:55;-2.00;99.90
34434;DHT22;34290;48.562;13.384;2023-02-15T07:18:36;-1.90;99.90
34434;DHT22;34290;48.562;13.384;2023-02-15T07:21:04;-1.80;99.90
34434;DHT22;34290;48.562;13.384;2023-02-15T07:23:34;-1.70;99.90
34434;DHT22;34290;48.562;13.384;2023-02-15T07:26:01;-1.70;99.90
34434;DHT22;34290;48.562;13.384;2023-02-15T07:30:56;-1.60;99.90
34434;DHT22;34290;48.562;13.384;2023-02-15T07:35:53;-1.60;99.90
34434;DHT22;34290;48.562;13.384;2023-02-15T07:38:21;-1.60;99.90
34434;DHT22;34290;48.562;13.384;2023-02-15T07:40:50;-1.70;99.90
34434;DHT22;34290;48.562;13.384;2023-02-15T07:43:17;-1.60;99.90
34434;DHT22;34290;48.562;13.384;2023-02-15T07:48:11;-1.70;99.90
34434;DHT22;34290;48.562;13.384;2023-02-15T07:53:05;-1.60;99.90
34434;DHT22;34290;48.562;13.384;2023-02-15T07:58:03;-1.60;99.90
34434;DHT22;34290;48.562;13.384;2023-02-15T08:00:30;-1.50;99.90
34434;DHT22;34290;48.562;13.384;2023-02-15T08:03:17;-1.50;99.90
34434;DHT22;34290;48.562;13.384;2023-02-15T08:08:12;-1.50;99.90
34434;DHT22;34290;48.562;13.384;2023-02-15T08:10:58;-1.50;99.90
34434;DHT22;34290;48.562;13.384;2023-02-15T08:13:44;-1.50;99.90
34434;DHT22;34290;48.562;13.384;2023-02-15T08:16:20;-1.50;99.90
34434;DHT22;34290;48.562;13.384;2023-02-15T08:18:47;-1.50;99.90
34434;DHT22;34290;48.562;13.384;2023-02-15T08:21:14;-1.50;99.90
34434;DHT22;34290;48.562;13.384;2023-02-15T08:23:41;-1.50;99.90
34434;DHT22;34290;48.562;13.384;2023-02-15T08:26:08;-1.50;99.90
34434;DHT22;34290;48.562;13.384;2023-02-15T08:28:36;-1.50;99.90
34434;DHT22;34290;48.562;13.384;2023-02-15T08:31:09;-1.40;99.90
34434;DHT22;34290;48.562;13.384;2023-02-15T08:33:37;-1.30;99.90
34434;DHT22;34290;48.562;13.384;2023-02-15T08:36:06;-1.30;99.90
34434;DHT22;34290;48.562;13.384;2023-02-15T08:38:34;-1.30;99.90
34434;DHT22;34290;48.562;13.384;2023-02-15T08:41:12;-1.40;99.90
34434;DHT22;34290;48.562;13.384;2023-02-15T08:48:37;-1.20;99.90
34434;DHT22;34290;48.562;13.384;2023-02-15T08:51:06;-1.20;99.90
34434;DHT22;34290;48.562;13.384;2023-02-15T08:53:33;-1.20;99.90
34434;DHT22;34290;48.562;13.384;2023-02-15T08:56:00;-1.20;99.90
34434;DHT22;34290;48.562;13.384;2023-02-15T09:03:25;-1.20;99.90
34434;DHT22;34290;48.562;13.384;2023-02-15T09:08:25;-1.20;99.90
34434;DHT22;34290;48.562;13.384;2023-02-15T09:10:53;-1.20;99.90
34434;DHT22;34290;48.562;13.384;2023-02-15T09:13:20;-1.10;99.90
34434;DHT22;34290;48.562;13.384;2023-02-15T09:15:47;-1.00;99.90
34434;DHT22;34290;48.562;13.384;2023-02-15T09:18:14;-0.90;99.90
34434;DHT22;34290;48.562;13.384;2023-02-15T09:20:44;-0.90;99.90
34434;DHT22;34290;48.562;13.384;2023-02-15T09:23:11;-0.80;99.90
34434;DHT22;34290;48.562;13.384;2023-02-15T09:28:08;-0.80;99.90
34434;DHT22;34290;48.562;13.384;2023-02-15T09:30:35;-0.70;99.90
34434;DHT22;34290;48.562;13.384;2023-02-15T09:33:02;-0.80;99.90
34434;DHT22;34290;48.562;13.384;2023-02-15T09:35:29;-0.90;99.90
34434;DHT22;34290;48.562;13.384;2023-02-15T09:40:24;-0.70;99.90
34434;DHT22;34290;48.562;13.384;2023-02-15T09:43:14;-0.60;99.90
34434;DHT22;34290;48.562;13.384;2023-02-15T09:46:05;-0.50;99.90
34434;DHT22;34290;48.562;13.384;2023-02-15T09:48:39;-0.60;99.90
34434;DHT22;34290;48.562;13.384;2023-02-15T09:51:24;-0.60;99.90
34434;DHT22;34290;48.562;13.384;2023-02-15T09:54:08;-0.50;99.90
34434;DHT22;34290;48.562;13.384;2023-02-15T09:56:41;-0.50;99.90
34434;DHT22;34290;48.562;13.384;2023-02-15T09:59:18;-0.60;99.90
34434;DHT22;34290;48.562;13.384;2023-02-15T10:01:58;-0.70;99.90
34434;DHT22;34290;48.562;13.384;2023-02-15T10:04:43;-0.60;99.90
34434;DHT22;34290;48.562;13.384;2023-02-15T10:07:21;-0.70;99.90
34434;DHT22;34290;48.562;13.384;2023-02-15T10:17:58;-0.70;99.90
34434;DHT22;34290;48.562;13.384;2023-02-15T10:20:33;-0.60;99.90
34434;DHT22;34290;48.562;13.384;2023-02-15T10:23:20;-0.40;99.90
34434;DHT22;34290;48.562;13.384;2023-02-15T10:30:59;-0.80;99.90
34434;DHT22;34290;48.562;13.384;2023-02-15T10:33:38;-0.90;99.90
34434;DHT22;34290;48.562;13.384;2023-02-15T10:36:24;-0.80;99.90
34434;DHT22;34290;48.562;13.384;2023-02-15T10:38:58;-0.60;99.90
34434;DHT22;34290;48.562;13.384;2023-02-15T10:41:37;-0.60;99.90
34434;DHT22;34290;48.562;13.384;2023-02-15T10:47:00;-0.60;99.90
34434;DHT22;34290;48.562;13.384;2023-02-15T10:49:43;-0.70;99.90
34434;DHT22;34290;48.562;13.384;2023-02-15T10:52:23;-0.60;99.90
34434;DHT22;34290;48.562;13.384;2023-02-15T10:57:33;-0.70;99.90
34434;DHT22;34290;48.562;13.384;2023-02-15T11:05:31;-0.40;99.90
34434;DHT22;34290;48.562;13.384;2023-02-15T11:08:06;-0.30;99.90
34434;DHT22;34290;48.562;13.384;2023-02-15T11:10:36;-0.20;99.90
34434;DHT22;34290;48.562;13.384;2023-02-15T11:13:11;-0.20;99.90
34434;DHT22;34290;48.562;13.384;2023-02-15T11:15:42;0.00;99.90
34434;DHT22;34290;48.562;13.384;2023-02-15T11:18:14;-0.20;99.90
34434;DHT22;34290;48.562;13.384;2023-02-15T11:20:48;-0.20;99.90
34434;DHT22;34290;48.562;13.384;2023-02-15T11:23:16;-0.10;99.90
34434;DHT22;34290;48.562;13.384;2023-02-15T11:25:46;0.00;99.90
34434;DHT22;34290;48.562;13.384;2023-02-15T11:28:19;0.00;99.90
34434;DHT22;34290;48.562;13.384;2023-02-15T11:30:51;0.20;99.90
34434;DHT22;34290;48.562;13.384;2023-02-15T11:33:23;0.30;99.90
34434;DHT22;34290;48.562;13.384;2023-02-15T11:35:55;0.30;99.90
34434;DHT22;34290;48.562;13.384;2023-02-15T11:38:28;0.30;99.90
34434;DHT22;34290;48.562;13.384;2023-02-15T11:40:57;0.40;99.90
34434;DHT22;34290;48.562;13.384;2023-02-15T11:43:32;0.30;99.90
34434;DHT22;34290;48.562;13.384;2023-02-15T11:46:00;0.40;99.90
34434;DHT22;34290;48.562;13.384;2023-02-15T11:48:30;0.40;99.90
34434;DHT22;34290;48.562;13.384;2023-02-15T11:53:28;0.50;99.90
34434;DHT22;34290;48.562;13.384;2023-02-15T11:55:58;0.40;99.90
34434;DHT22;34290;48.562;13.384;2023-02-15T11:58:30;0.40;99.90
34434;DHT22;34290;48.562;13.384;2023-02-15T12:01:04;0.50;99.90
34434;DHT22;34290;48.562;13.384;2023-02-15T12:03:46;0.50;99.90
34434;DHT22;34290;48.562;13.384;2023-02-15T12:06:21;0.70;99.90
34434;DHT22;34290;48.562;13.384;2023-02-15T12:08:53;0.60;99.90
34434;DHT22;34290;48.562;13.384;2023-02-15T12:13:58;0.60;99.90
34434;DHT22;34290;48.562;13.384;2023-02-15T12:16:26;0.70;99.90
34434;DHT22;34290;48.562;13.384;2023-02-15T12:18:56;0.70;99.90
34434;DHT22;34290;48.562;13.384;2023-02-15T12:21:29;0.50;99.90
34434;DHT22;34290;48.562;13.384;2023-02-15T12:24:00;0.50;99.90
34434;DHT22;34290;48.562;13.384;2023-02-15T12:26:30;0.50;99.90
34434;DHT22;34290;48.562;13.384;2023-02-15T12:29:00;0.80;99.90
34434;DHT22;34290;48.562;13.384;2023-02-15T12:31:32;1.00;99.90
34434;DHT22;34290;48.562;13.384;2023-02-15T12:34:02;1.10;99.90
34434;DHT22;34290;48.562;13.384;2023-02-15T12:36:33;1.30;99.90
34434;DHT22;34290;48.562;13.384;2023-02-15T12:39:20;1.20;99.90
34434;DHT22;34290;48.562;13.384;2023-02-15T12:41:59;1.20;99.90
34434;DHT22;34290;48.562;13.384;2023-02-15T12:46:57;1.00;99.90
34434;DHT22;34290;48.562;13.384;2023-02-15T12:49:25;1.00;99.90
34434;DHT22;34290;48.562;13.384;2023-02-15T12:51:54;0.90;99.90
34434;DHT22;34290;48.562;13.384;2023-02-15T12:54:33;0.90;99.90
34434;DHT22;34290;48.562;13.384;2023-02-15T12:57:15;1.00;99.90
34434;DHT22;34290;48.562;13.384;2023-02-15T12:59:50;1.10;99.90
34434;DHT22;34290;48.562;13.384;2023-02-15T13:02:25;1.00;99.90
34434;DHT22;34290;48.562;13.384;2023-02-15T13:04:54;1.00;99.90
34434;DHT22;34290;48.562;13.384;2023-02-15T13:07:22;0.90;99.90
34434;DHT22;34290;48.562;13.384;2023-02-15T13:09:51;1.10;99.90
34434;DHT22;34290;48.562;13.384;2023-02-15T13:12:21;1.10;99.90
34434;DHT22;34290;48.562;13.384;2023-02-15T13:14:52;1.00;99.90
34434;DHT22;34290;48.562;13.384;2023-02-15T13:17:23;1.10;99.90
34434;DHT22;34290;48.562;13.384;2023-02-15T13:19:57;1.20;99.90
34434;DHT22;34290;48.562;13.384;2023-02-15T13:22:28;1.30;99.90
34434;DHT22;34290;48.562;13.384;2023-02-15T13:25:01;1.30;99.90
34434;DHT22;34290;48.562;13.384;2023-02-15T13:27:34;1.40;99.90
34434;DHT22;34290;48.562;13.384;2023-02-15T13:32:54;1.50;99.90
34434;DHT22;34290;48.562;13.384;2023-02-15T13:35:22;1.60;99.90
34434;DHT22;34290;48.562;13.384;2023-02-15T13:38:06;1.70;99.90
34434;DHT22;34290;48.562;13.384;2023-02-15T13:40:38;1.70;99.90
34434;DHT22;34290;48.562;13.384;2023-02-15T13:43:19;1.70;99.90
34434;DHT22;34290;48.562;13.384;2023-02-15T13:45:57;1.60;99.90
34434;DHT22;34290;48.562;13.384;2023-02-15T13:48:36;1.50;99.90
34434;DHT22;34290;48.562;13.384;2023-02-15T13:51:13;1.60;99.90
34434;DHT22;34290;48.562;13.384;2023-02-15T13:53:52;1.60;99.90
34434;DHT22;34290;48.562;13.384;2023-02-15T13:56:29;1.30;99.90
34434;DHT22;34290;48.562;13.384;2023-02-15T13:59:14;1.20;99.90
34434;DHT22;34290;48.562;13.384;2023-02-15T14:01:53;1.30;99.90
34434;DHT22;34290;48.562;13.384;2023-02-15T14:05:05;1.30;99.90
34434;DHT22;34290;48.562;13.384;2023-02-15T14:07:52;1.50;99.90
34434;DHT22;34290;48.562;13.384;2023-02-15T14:10:35;1.60;99.90
34434;DHT22;34290;48.562;13.384;2023-02-15T14:13:27;1.40;99.90
34434;DHT22;34290;48.562;13.384;2023-02-15T14:16:03;1.30;99.90
34434;DHT22;34290;48.562;13.384;2023-02-15T14:18:38;1.20;99.90
34434;DHT22;34290;48.562;13.384;2023-02-15T14:21:10;1.30;99.90
34434;DHT22;34290;48.562;13.384;2023-02-15T14:23:52;1.30;99.90
34434;DHT22;34290;48.562;13.384;2023-02-15T14:26:30;1.30;99.90
34434;DHT22;34290;48.562;13.384;2023-02-15T14:29:07;1.40;99.90
34434;DHT22;34290;48.562;13.384;2023-02-15T14:31:40;1.40;99.90
34434;DHT22;34290;48.562;13.384;2023-02-15T14:34:18;1.30;99.90
34434;DHT22;34290;48.562;13.384;2023-02-15T14:36:46;1.20;99.90
34434;DHT22;34290;48.562;13.384;2023-02-15T14:39:22;1.10;99.90
34434;DHT22;34290;48.562;13.384;2023-02-15T14:42:15;1.20;99.90
34434;DHT22;34290;48.562;13.384;2023-02-15T14:44:49;0.90;99.90
34434;DHT22;34290;48.562;13.384;2023-02-15T14:47:21;0.70;99.90
34434;DHT22;34290;48.562;13.384;2023-02-15T14:49:50;0.70;99.90
34434;DHT22;34290;48.562;13.384;2023-02-15T14:52:18;0.70;99.90
34434;DHT22;34290;48.562;13.384;2023-02-15T14:54:56;0.60;99.90
34434;DHT22;34290;48.562;13.384;2023-02-15T14:57:25;0.50;99.90
34434;DHT22;34290;48.562;13.384;2023-02-15T14:59:55;0.50;99.90
34434;DHT22;34290;48.562;13.384;2023-02-15T15:02:29;0.60;99.90
34434;DHT22;34290;48.562;13.384;2023-02-15T15:05:02;0.60;99.90
34434;DHT22;34290;48.562;13.384;2023-02-15T15:07:38;0.60;99.90
34434;DHT22;34290;48.562;13.384;2023-02-15T15:10:42;0.50;99.90
34434;DHT22;34290;48.562;13.384;2023-02-15T15:13:38;0.60;99.90
34434;DHT22;34290;48.562;13.384;2023-02-15T15:16:30;0.60;99.90
34434;DHT22;34290;48.562;13.384;2023-02-15T15:18:57;0.60;99.90
34434;DHT22;34290;48.562;13.384;2023-02-15T15:22:02;0.60;99.90
34434;DHT22;34290;48.562;13.384;2023-02-15T15:24:49;0.60;99.90
34434;DHT22;34290;48.562;13.384;2023-02-15T15:27:40;0.60;99.90
34434;DHT22;34290;48.562;13.384;2023-02-15T15:37:09;0.60;99.90
34434;DHT22;34290;48.562;13.384;2023-02-15T15:40:20;0.60;99.90
34434;DHT22;34290;48.562;13.384;2023-02-15T15:43:22;0.60;99.90
34434;DHT22;34290;48.562;13.384;2023-02-15T15:46:12;0.50;99.90
34434;DHT22;34290;48.562;13.384;2023-02-15T15:48:40;0.40;99.90
34434;DHT22;34290;48.562;13.384;2023-02-15T15:51:12;0.30;99.90
34434;DHT22;34290;48.562;13.384;2023-02-15T15:53:45;0.30;99.90
34434;DHT22;34290;48.562;13.384;2023-02-15T15:56:19;0.20;99.90
34434;DHT22;34290;48.562;13.384;2023-02-15T15:58:51;0.30;99.90
34434;DHT22;34290;48.562;13.384;2023-02-15T16:01:26;0.30;99.90
34434;DHT22;34290;48.562;13.384;2023-02-15T16:03:55;0.20;99.90
34434;DHT22;34290;48.562;13.384;2023-02-15T16:06:40;0.20;99.90
34434;DHT22;34290;48.562;13.384;2023-02-15T16:09:17;0.30;99.90
34434;DHT22;34290;48.562;13.384;2023-02-15T16:11:47;0.30;99.90
34434;DHT22;34290;48.562;13.384;2023-02-15T16:14:16;0.20;99.90
34434;DHT22;34290;48.562;13.384;2023-02-15T16:16:53;0.20;99.90
34434;DHT22;34290;48.562;13.384;2023-02-15T16:19:24;0.10;99.90
34434;DHT22;34290;48.562;13.384;2023-02-15T16:21:54;0.10;99.90
34434;DHT22;34290;48.562;13.384;2023-02-15T16:27:35;0.10;99.90
34434;DHT22;34290;48.562;13.384;2023-02-15T16:30:20;0.10;99.90
34434;DHT22;34290;48.562;13.384;2023-02-15T16:32:48;0.00;99.90
34434;DHT22;34290;48.562;13.384;2023-02-15T16:35:17;-0.10;99.90
34434;DHT22;34290;48.562;13.384;2023-02-15T16:37:44;0.00;99.90
34434;DHT22;34290;48.562;13.384;2023-02-15T16:40:32;0.00;99.90
34434;DHT22;34290;48.562;13.384;2023-02-15T16:43:06;0.00;99.90
34434;DHT22;34290;48.562;13.384;2023-02-15T16:45:36;0.00;99.90
34434;DHT22;34290;48.562;13.384;2023-02-15T16:48:10;-0.10;99.90
34434;DHT22;34290;48.562;13.384;2023-02-15T16:50:39;-0.10;99.90
34434;DHT22;34290;48.562;13.384;2023-02-15T16:53:13;-0.10;99.90
34434;DHT22;34290;48.562;13.384;2023-02-15T16:55:41;-0.10;99.90
34434;DHT22;34290;48.562;13.384;2023-02-15T16:58:15;-0.20;99.90
34434;DHT22;34290;48.562;13.384;2023-02-15T17:00:43;-0.30;99.90
34434;DHT22;34290;48.562;13.384;2023-02-15T17:03:21;-0.30;99.90
34434;DHT22;34290;48.562;13.384;2023-02-15T17:05:51;-0.40;99.90
34434;DHT22;34290;48.562;13.384;2023-02-15T17:08:23;-0.30;99.90
34434;DHT22;34290;48.562;13.384;2023-02-15T17:11:04;-0.40;99.90
34434;DHT22;34290;48.562;13.384;2023-02-15T17:13:33;-0.60;99.90
34434;DHT22;34290;48.562;13.384;2023-02-15T17:18:50;-0.60;99.90
34434;DHT22;34290;48.562;13.384;2023-02-15T17:21:20;-0.60;99.90
34434;DHT22;34290;48.562;13.384;2023-02-15T17:23:51;-0.50;99.90
34434;DHT22;34290;48.562;13.384;2023-02-15T17:26:26;-0.50;99.90
34434;DHT22;34290;48.562;13.384;2023-02-15T17:28:56;-0.40;99.90
34434;DHT22;34290;48.562;13.384;2023-02-15T17:31:26;-0.40;99.90
34434;DHT22;34290;48.562;13.384;2023-02-15T17:33:56;-0.40;99.90
34434;DHT22;34290;48.562;13.384;2023-02-15T17:36:25;-0.40;99.90
34434;DHT22;34290;48.562;13.384;2023-02-15T17:39:05;-0.40;99.90
34434;DHT22;34290;48.562;13.384;2023-02-15T17:41:33;-0.50;99.90
34434;DHT22;34290;48.562;13.384;2023-02-15T17:44:03;-0.50;99.90
34434;DHT22;34290;48.562;13.384;2023-02-15T17:46:34;-0.50;99.90
34434;DHT22;34290;48.562;13.384;2023-02-15T17:49:02;-0.50;99.90
34434;DHT22;34290;48.562;13.384;2023-02-15T17:54:07;-0.40;99.90
34434;DHT22;34290;48.562;13.384;2023-02-15T17:57:11;-0.40;99.90
34434;DHT22;34290;48.562;13.384;2023-02-15T17:59:40;-0.50;99.90
34434;DHT22;34290;48.562;13.384;2023-02-15T18:02:27;-0.50;99.90
34434;DHT22;34290;48.562;13.384;2023-02-15T18:05:15;-0.60;99.90
34434;DHT22;34290;48.562;13.384;2023-02-15T18:07:59;-0.50;99.90
34434;DHT22;34290;48.562;13.384;2023-02-15T18:10:44;-0.50;99.90
34434;DHT22;34290;48.562;13.384;2023-02-15T18:13:28;-0.40;99.90
34434;DHT22;34290;48.562;13.384;2023-02-15T18:15:56;-0.50;99.90
34434;DHT22;34290;48.562;13.384;2023-02-15T18:18:23;-0.50;99.90
34434;DHT22;34290;48.562;13.384;2023-02-15T18:20:50;-0.50;99.90
34434;DHT22;34290;48.562;13.384;2023-02-15T18:23:18;-0.60;99.90
34434;DHT22;34290;48.562;13.384;2023-02-15T18:28:12;-0.70;99.90
34434;DHT22;34290;48.562;13.384;2023-02-15T18:30:40;-0.70;99.90
34434;DHT22;34290;48.562;13.384;2023-02-15T18:33:24;-0.80;99.90
34434;DHT22;34290;48.562;13.384;2023-02-15T18:35:55;-0.80;99.90
34434;DHT22;34290;48.562;13.384;2023-02-15T18:40:49;-0.90;99.90
34434;DHT22;34290;48.562;13.384;2023-02-15T18:45:43;-1.00;99.90
34434;DHT22;34290;48.562;13.384;2023-02-15T18:48:11;-0.90;99.90
34434;DHT22;34290;48.562;13.384;2023-02-15T18:50:40;-1.00;99.90
34434;DHT22;34290;48.562;13.384;2023-02-15T18:55:41;-1.10;99.90
34434;DHT22;34290;48.562;13.384;2023-02-15T19:00:37;-1.10;99.90
34434;DHT22;34290;48.562;13.384;2023-02-15T19:03:05;-1.10;99.90
34434;DHT22;34290;48.562;13.384;2023-02-15T19:05:33;-1.10;99.90
34434;DHT22;34290;48.562;13.384;2023-02-15T19:08:00;-1.10;99.90
34434;DHT22;34290;48.562;13.384;2023-02-15T19:10:30;-1.10;99.90
34434;DHT22;34290;48.562;13.384;2023-02-15T19:12:58;-1.00;99.90
34434;DHT22;34290;48.562;13.384;2023-02-15T19:17:54;-1.00;99.90
34434;DHT22;34290;48.562;13.384;2023-02-15T19:20:23;-1.00;99.90
34434;DHT22;34290;48.562;13.384;2023-02-15T19:22:54;-1.00;99.90
34434;DHT22;34290;48.562;13.384;2023-02-15T19:25:23;-1.10;99.90
34434;DHT22;34290;48.562;13.384;2023-02-15T19:27:51;-1.10;99.90
34434;DHT22;34290;48.562;13.384;2023-02-15T19:30:18;-1.10;99.90
34434;DHT22;34290;48.562;13.384;2023-02-15T19:32:47;-1.10;99.90
34434;DHT22;34290;48.562;13.384;2023-02-15T19:35:14;-1.10;99.90
34434;DHT22;34290;48.562;13.384;2023-02-15T19:37:43;-1.00;99.90
34434;DHT22;34290;48.562;13.384;2023-02-15T19:40:19;-1.00;99.90
34434;DHT22;34290;48.562;13.384;2023-02-15T19:42:47;-0.90;99.90
34434;DHT22;34290;48.562;13.384;2023-02-15T19:47:41;-1.00;99.90
34434;DHT22;34290;48.562;13.384;2023-02-15T19:50:13;-1.10;99.90
34434;DHT22;34290;48.562;13.384;2023-02-15T19:52:43;-1.10;99.90
34434;DHT22;34290;48.562;13.384;2023-02-15T19:55:20;-1.00;99.90
34434;DHT22;34290;48.562;13.384;2023-02-15T19:57:48;-0.90;99.90
34434;DHT22;34290;48.562;13.384;2023-02-15T20:00:17;-0.90;99.90
34434;DHT22;34290;48.562;13.384;2023-02-15T20:02:46;-0.90;99.90
34434;DHT22;34290;48.562;13.384;2023-02-15T20:05:13;-0.90;99.90
34434;DHT22;34290;48.562;13.384;2023-02-15T20:07:43;-0.80;99.90
34434;DHT22;34290;48.562;13.384;2023-02-15T20:10:18;-0.90;99.90
34434;DHT22;34290;48.562;13.384;2023-02-15T20:12:47;-1.00;99.90
34434;DHT22;34290;48.562;13.384;2023-02-15T20:17:45;-1.10;99.90
34434;DHT22;34290;48.562;13.384;2023-02-15T20:20:13;-1.00;99.90
34434;DHT22;34290;48.562;13.384;2023-02-15T20:22:41;-1.00;99.90
34434;DHT22;34290;48.562;13.384;2023-02-15T20:25:20;-0.90;99.90
34434;DHT22;34290;48.562;13.384;2023-02-15T20:27:51;-1.00;99.90
34434;DHT22;34290;48.562;13.384;2023-02-15T20:30:24;-0.90;99.90
34434;DHT22;34290;48.562;13.384;2023-02-15T20:35:19;-0.90;99.90
34434;DHT22;34290;48.562;13.384;2023-02-15T20:37:49;-1.00;99.90
34434;DHT22;34290;48.562;13.384;2023-02-15T20:40:19;-1.00;99.90
34434;DHT22;34290;48.562;13.384;2023-02-15T20:45:18;-1.00;99.90
34434;DHT22;34290;48.562;13.384;2023-02-15T20:50:16;-1.00;99.90
34434;DHT22;34290;48.562;13.384;2023-02-15T20:55:13;-1.00;99.90
34434;DHT22;34290;48.562;13.384;2023-02-15T20:57:41;-1.00;99.90
34434;DHT22;34290;48.562;13.384;2023-02-15T21:00:13;-1.00;99.90
34434;DHT22;34290;48.562;13.384;2023-02-15T21:02:41;-1.00;99.90
34434;DHT22;34290;48.562;13.384;2023-02-15T21:05:19;-1.00;99.90
34434;DHT22;34290;48.562;13.384;2023-02-15T21:07:48;-1.00;99.90